createdAt,value
2023-03-24T00:01:24.985Z,22.10
2023-03-24T00:03:53.114Z,22.40
2023-03-24T00:06:23.010Z,26.40
2023-03-24T00:08:51.097Z,27.30
2023-03-24T00:11:21.503Z,23.10
2023-03-24T00:13:50.739Z,20.60
2023-03-24T00:16:20.020Z,20.10
2023-03-24T00:18:53.210Z,20.70
2023-03-24T00:21:27.474Z,21.80
2023-03-24T00:23:58.367Z,22.20
2023-03-24T00:26:26.300Z,45.00
2023-03-24T00:28:55.753Z,39.50
2023-03-24T00:31:24.858Z,23.60
2023-03-24T00:33:54.845Z,21.30
2023-03-24T00:36:25.856Z,19.10
2023-03-24T00:38:56.473Z,18.50
2023-03-24T00:41:26.974Z,17.90
2023-03-24T00:43:58.779Z,16.50
2023-03-24T00:46:29.877Z,16.60
2023-03-24T00:49:06.911Z,14.10
2023-03-24T00:51:38.539Z,14.90
2023-03-24T00:54:09.354Z,13.60
2023-03-24T00:56:40.609Z,11.40
2023-03-24T00:59:10.611Z,11.40
2023-03-24T01:01:41.361Z,11.00
2023-03-24T01:04:10.554Z,10.50
2023-03-24T01:06:40.093Z,10.40
2023-03-24T01:09:08.895Z,10.30
2023-03-24T01:11:41.375Z,10.30
2023-03-24T01:14:11.836Z,10.20
2023-03-24T01:16:40.616Z,11.40
2023-03-24T01:19:09.530Z,14.40
2023-03-24T01:21:39.406Z,18.40
2023-03-24T01:24:08.423Z,18.10
2023-03-24T01:26:36.488Z,16.10
2023-03-24T01:29:05.080Z,16.70
2023-03-24T01:31:33.295Z,14.80
2023-03-24T01:34:01.436Z,19.50
2023-03-24T01:36:29.390Z,20.80
2023-03-24T01:39:01.162Z,32.30
2023-03-24T01:41:41.205Z,15.30
2023-03-24T01:44:43.192Z,14.30
2023-03-24T01:47:11.188Z,13.20
2023-03-24T01:49:45.758Z,13.00
2023-03-24T01:52:22.743Z,12.90
2023-03-24T01:54:58.332Z,13.30
2023-03-24T01:57:35.804Z,11.40
2023-03-24T02:00:09.401Z,10.70
2023-03-24T02:02:55.067Z,9.00
2023-03-24T02:05:28.465Z,8.50
2023-03-24T02:08:10.811Z,8.00
2023-03-24T02:10:39.157Z,7.90
2023-03-24T02:13:08.010Z,7.60
2023-03-24T02:15:54.266Z,7.30
2023-03-24T02:18:37.905Z,7.80
2023-03-24T02:21:43.744Z,7.00
2023-03-24T02:24:43.311Z,6.70
2023-03-24T02:27:30.208Z,6.70
2023-03-24T02:30:40.493Z,6.70
2023-03-24T02:33:46.090Z,7.10
2023-03-24T02:36:50.797Z,7.10
2023-03-24T02:39:24.649Z,7.70
2023-03-24T02:42:14.423Z,7.30
2023-03-24T02:44:58.651Z,7.90
2023-03-24T02:47:41.106Z,7.90
2023-03-24T02:50:19.463Z,8.10
2023-03-24T02:52:56.734Z,9.30
2023-03-24T02:55:33.905Z,9.60
2023-03-24T02:58:07.512Z,8.80
2023-03-24T03:00:59.464Z,8.40
2023-03-24T03:03:49.580Z,8.40
2023-03-24T03:06:24.454Z,7.50
2023-03-24T03:08:55.963Z,8.90
2023-03-24T03:11:23.891Z,8.70
2023-03-24T03:14:01.322Z,9.50
2023-03-24T03:16:38.710Z,8.10
2023-03-24T03:19:18.108Z,23.60
2023-03-24T03:21:49.672Z,18.40
2023-03-24T03:24:27.026Z,23.50
2023-03-24T03:27:02.452Z,13.90
2023-03-24T03:29:38.371Z,10.20
2023-03-24T03:32:09.856Z,9.50
2023-03-24T03:34:44.410Z,10.20
2023-03-24T03:37:36.678Z,9.10
2023-03-24T03:40:12.162Z,8.30
2023-03-24T03:42:42.155Z,8.60
2023-03-24T03:45:11.330Z,8.80
2023-03-24T03:47:40.498Z,16.80
2023-03-24T03:50:10.133Z,17.50
2023-03-24T03:52:41.679Z,25.70
2023-03-24T03:55:12.080Z,20.20
2023-03-24T03:57:41.436Z,8.70
2023-03-24T04:00:16.070Z,9.00
2023-03-24T04:03:07.432Z,8.00
2023-03-24T04:05:38.562Z,7.60
2023-03-24T04:08:22.266Z,7.70
2023-03-24T04:11:36.226Z,8.50
2023-03-24T04:14:37.698Z,10.00
2023-03-24T04:17:42.691Z,18.90
2023-03-24T04:20:22.383Z,16.90
2023-03-24T04:23:05.224Z,10.70
2023-03-24T04:25:57.018Z,8.90
2023-03-24T04:28:48.026Z,8.70
2023-03-24T04:31:39.229Z,10.40
2023-03-24T04:34:28.898Z,10.10
2023-03-24T04:37:06.026Z,9.30
2023-03-24T04:39:47.006Z,9.20
2023-03-24T04:42:23.730Z,9.10
2023-03-24T04:44:52.822Z,9.40
2023-03-24T04:50:38.775Z,8.10
2023-03-24T04:53:10.704Z,7.50
2023-03-24T04:55:50.911Z,7.00
2023-03-24T04:58:27.445Z,6.30
2023-03-24T05:00:56.752Z,6.10
2023-03-24T05:03:26.393Z,6.40
2023-03-24T05:05:54.639Z,5.80
2023-03-24T05:08:23.131Z,5.50
2023-03-24T05:10:51.516Z,5.40
2023-03-24T05:13:19.577Z,5.80
2023-03-24T05:15:53.884Z,5.70
2023-03-24T05:18:29.785Z,6.20
2023-03-24T05:20:58.167Z,6.30
2023-03-24T05:23:26.545Z,7.00
2023-03-24T05:25:55.049Z,7.00
2023-03-24T05:28:24.289Z,6.70
2023-03-24T05:30:53.778Z,7.30
2023-03-24T05:33:44.834Z,6.40
2023-03-24T05:36:16.360Z,6.10
2023-03-24T05:38:45.830Z,6.30
2023-03-24T05:41:13.796Z,10.30
2023-03-24T05:43:42.818Z,51.40
2023-03-24T05:46:12.255Z,42.00
2023-03-24T05:48:41.346Z,15.80
2023-03-24T05:51:13.146Z,16.70
2023-03-24T05:53:41.406Z,16.90
2023-03-24T05:56:33.103Z,25.60
2023-03-24T05:59:07.808Z,20.80
2023-03-24T06:01:56.974Z,26.60
2023-03-24T06:04:37.165Z,59.50
2023-03-24T06:07:11.667Z,91.70
2023-03-24T06:09:42.667Z,86.50
2023-03-24T06:12:13.229Z,69.50
2023-03-24T06:14:48.499Z,103.90
2023-03-24T06:17:16.408Z,61.20
2023-03-24T06:19:49.947Z,81.60
2023-03-24T06:22:38.731Z,62.30
2023-03-24T06:25:12.336Z,57.20
2023-03-24T06:27:48.536Z,29.70
2023-03-24T06:30:19.362Z,68.70
2023-03-24T06:32:47.672Z,103.90
2023-03-24T06:35:17.914Z,113.30
2023-03-24T06:38:15.448Z,41.60
2023-03-24T06:40:45.094Z,81.90
2023-03-24T06:43:13.284Z,89.60
2023-03-24T06:45:45.736Z,118.30
2023-03-24T06:48:19.734Z,164.90
2023-03-24T06:50:48.297Z,48.20
2023-03-24T06:53:17.170Z,78.50
2023-03-24T06:55:46.252Z,109.30
2023-03-24T06:58:15.763Z,70.00
2023-03-24T07:00:55.394Z,84.00
2023-03-24T07:03:48.796Z,94.10
2023-03-24T07:06:18.577Z,51.60
2023-03-24T07:08:50.753Z,57.40
2023-03-24T07:11:19.629Z,31.90
2023-03-24T07:13:55.391Z,97.90
2023-03-24T07:16:23.739Z,69.40
2023-03-24T07:18:59.568Z,84.20
2023-03-24T07:21:28.381Z,92.90
2023-03-24T07:23:56.749Z,83.30
2023-03-24T07:26:35.275Z,58.80
2023-03-24T07:29:11.899Z,62.80
2023-03-24T07:31:54.535Z,93.10
2023-03-24T07:34:22.603Z,51.60
2023-03-24T07:36:50.610Z,45.70
2023-03-24T07:39:18.730Z,65.00
2023-03-24T07:41:47.343Z,49.60
2023-03-24T07:44:29.782Z,34.60
2023-03-24T07:47:01.743Z,113.20
2023-03-24T07:49:29.727Z,50.20
2023-03-24T07:52:09.712Z,51.70
2023-03-24T07:54:46.781Z,40.40
2023-03-24T07:57:37.400Z,30.60
2023-03-24T08:00:18.053Z,42.30
2023-03-24T08:02:53.792Z,39.20
2023-03-24T08:05:29.708Z,93.00
2023-03-24T08:08:16.671Z,95.90
2023-03-24T08:10:46.556Z,110.40
2023-03-24T08:13:14.732Z,108.40
2023-03-24T08:15:42.652Z,65.90
2023-03-24T08:18:10.641Z,69.90
2023-03-24T08:20:38.455Z,62.00
2023-03-24T08:23:07.322Z,58.10
2023-03-24T08:25:36.514Z,39.80
2023-03-24T08:28:06.161Z,62.10
2023-03-24T08:30:34.235Z,45.80
2023-03-24T08:33:03.684Z,34.20
2023-03-24T08:35:34.528Z,56.30
2023-03-24T08:38:06.058Z,34.70
2023-03-24T08:40:36.194Z,22.30
2023-03-24T08:43:08.720Z,33.70
2023-03-24T08:45:37.322Z,90.70
2023-03-24T08:48:07.362Z,74.80
2023-03-24T08:50:39.989Z,56.90
2023-03-24T08:53:09.591Z,54.20
2023-03-24T08:55:41.817Z,28.60
2023-03-24T08:58:15.351Z,47.10
2023-03-24T09:00:45.037Z,38.80
2023-03-24T09:03:18.503Z,41.30
2023-03-24T09:05:47.922Z,42.60
2023-03-24T09:08:18.356Z,74.20
2023-03-24T09:10:49.806Z,59.00
2023-03-24T09:13:20.076Z,49.60
2023-03-24T09:15:53.723Z,32.20
2023-03-24T09:18:22.400Z,41.00
2023-03-24T09:20:51.230Z,33.20
2023-03-24T09:23:20.450Z,16.60
2023-03-24T09:25:51.251Z,33.60
2023-03-24T09:28:19.705Z,14.70
2023-03-24T09:30:47.919Z,19.90
2023-03-24T09:33:16.328Z,34.60
2023-03-24T09:35:44.346Z,17.00
2023-03-24T09:38:12.498Z,25.30
2023-03-24T09:40:43.671Z,19.20
2023-03-24T09:43:31.862Z,18.20
2023-03-24T09:46:04.037Z,16.10
2023-03-24T09:48:55.114Z,20.60
2023-03-24T09:51:28.684Z,35.00
2023-03-24T09:54:17.164Z,13.00
2023-03-24T09:56:48.035Z,7.10
2023-03-24T09:59:29.828Z,9.70
2023-03-24T10:01:58.278Z,15.60
2023-03-24T10:04:28.889Z,9.40
2023-03-24T10:07:16.444Z,9.00
2023-03-24T10:09:48.992Z,5.90
2023-03-24T10:12:45.503Z,10.60
2023-03-24T10:15:37.401Z,6.10
2023-03-24T10:18:06.460Z,18.40
2023-03-24T10:20:47.306Z,19.60
2023-03-24T10:23:30.438Z,30.60
2023-03-24T10:26:23.188Z,30.60
2023-03-24T10:29:04.896Z,21.80
2023-03-24T10:31:35.095Z,28.50
2023-03-24T10:34:03.386Z,25.60
2023-03-24T10:36:32.400Z,12.30
2023-03-24T10:39:09.584Z,15.20
2023-03-24T10:41:46.841Z,13.50
2023-03-24T10:44:15.096Z,21.80
2023-03-24T10:46:47.183Z,15.70
2023-03-24T10:49:20.666Z,12.20
2023-03-24T10:51:51.922Z,11.80
2023-03-24T10:54:24.039Z,11.20
2023-03-24T10:56:57.952Z,7.00
2023-03-24T10:59:32.224Z,9.80
2023-03-24T11:02:16.325Z,10.70
2023-03-24T11:04:54.892Z,10.10
2023-03-24T11:07:35.410Z,11.60
2023-03-24T11:10:09.224Z,12.10
2023-03-24T11:12:40.166Z,8.50
2023-03-24T11:15:29.457Z,12.70
2023-03-24T11:18:16.691Z,14.60
2023-03-24T11:20:47.608Z,14.00
2023-03-24T11:23:20.163Z,15.90
2023-03-24T11:26:02.675Z,17.70
2023-03-24T11:28:37.955Z,11.00
2023-03-24T11:31:09.104Z,6.90
2023-03-24T11:33:47.391Z,5.90
2023-03-24T11:36:30.979Z,4.60
2023-03-24T11:39:04.754Z,5.30
2023-03-24T11:41:42.021Z,4.80
2023-03-24T11:44:19.031Z,5.30
2023-03-24T11:46:59.703Z,6.00
2023-03-24T11:49:36.165Z,4.90
2023-03-24T11:52:09.672Z,4.60
2023-03-24T11:54:37.842Z,5.50
2023-03-24T11:57:13.787Z,4.60
2023-03-24T11:59:58.305Z,8.70
2023-03-24T12:02:57.455Z,7.00
2023-03-24T12:05:37.682Z,5.50
2023-03-24T12:08:09.041Z,6.20
2023-03-24T12:11:04.866Z,5.60
2023-03-24T12:13:39.340Z,5.20
2023-03-24T12:16:20.001Z,5.30
2023-03-24T12:19:07.213Z,4.90
2023-03-24T12:21:52.998Z,4.90
2023-03-24T12:24:39.936Z,4.60
2023-03-24T12:27:22.112Z,4.30
2023-03-24T12:30:02.720Z,4.60
2023-03-24T12:32:58.879Z,4.10
2023-03-24T12:36:01.595Z,3.20
2023-03-24T12:38:58.392Z,6.40
2023-03-24T12:41:49.612Z,1.90
2023-03-24T12:44:39.292Z,3.30
2023-03-24T12:47:44.888Z,2.30
2023-03-24T12:50:17.876Z,3.00
2023-03-24T12:53:12.118Z,2.40
2023-03-24T12:55:48.635Z,2.60
2023-03-24T12:58:23.986Z,2.20
2023-03-24T13:01:13.316Z,1.70
2023-03-24T13:03:48.725Z,2.20
2023-03-24T13:06:24.019Z,2.00
2023-03-24T13:09:30.113Z,2.20
2023-03-24T13:12:02.916Z,1.90
2023-03-24T13:14:42.140Z,1.60
2023-03-24T13:17:18.007Z,1.70
2023-03-24T13:19:46.932Z,1.70
2023-03-24T13:22:18.324Z,1.20
2023-03-24T13:24:47.965Z,1.10
2023-03-24T13:27:28.746Z,1.30
2023-03-24T13:30:20.911Z,1.90
2023-03-24T13:32:56.791Z,1.30
2023-03-24T13:38:19.446Z,1.20
2023-03-24T13:40:53.618Z,1.40
2023-03-24T13:43:29.226Z,1.80
2023-03-24T13:46:03.536Z,1.20
2023-03-24T13:48:41.870Z,1.40
2023-03-24T13:51:33.052Z,1.30
2023-03-24T13:54:18.312Z,1.20
2023-03-24T13:57:01.695Z,1.30
2023-03-24T14:00:15.839Z,1.30
2023-03-24T14:02:50.064Z,1.80
2023-03-24T14:05:54.916Z,1.40
2023-03-24T14:08:53.940Z,1.20
2023-03-24T14:11:57.210Z,1.60
2023-03-24T14:14:27.534Z,4.20
2023-03-24T14:17:13.777Z,2.60
2023-03-24T14:20:08.797Z,4.20
2023-03-24T14:22:48.475Z,1.80
2023-03-24T14:25:16.321Z,3.10
2023-03-24T14:27:46.802Z,18.30
2023-03-24T14:30:30.968Z,3.90
2023-03-24T14:33:02.275Z,3.90
2023-03-24T14:35:43.861Z,2.50
2023-03-24T14:38:14.578Z,3.80
2023-03-24T14:40:46.349Z,5.00
2023-03-24T14:43:23.218Z,3.30
2023-03-24T14:45:56.830Z,9.90
2023-03-24T14:48:36.121Z,4.60
2023-03-24T14:51:27.396Z,4.50
2023-03-24T14:53:59.563Z,9.10
2023-03-24T14:56:34.844Z,4.80
2023-03-24T14:59:09.452Z,4.00
2023-03-24T15:01:38.518Z,4.60
2023-03-24T15:04:08.513Z,3.60
2023-03-24T15:06:47.550Z,3.60
2023-03-24T15:09:17.666Z,3.40
2023-03-24T15:11:48.504Z,3.10
2023-03-24T15:14:26.301Z,3.10
2023-03-24T15:17:06.583Z,3.20
2023-03-24T15:19:35.622Z,3.70
2023-03-24T15:22:11.764Z,3.90
2023-03-24T15:24:43.443Z,4.60
2023-03-24T15:27:26.717Z,5.20
2023-03-24T15:30:00.177Z,2.70
2023-03-24T15:32:32.371Z,3.80
2023-03-24T15:35:05.731Z,2.90
2023-03-24T15:37:41.695Z,3.90
2023-03-24T15:43:00.332Z,2.60
2023-03-24T15:45:31.894Z,3.60
2023-03-24T15:48:16.766Z,5.40
2023-03-24T15:51:09.382Z,6.60
2023-03-24T15:53:44.634Z,4.90
2023-03-24T15:56:20.258Z,12.40
2023-03-24T15:58:54.779Z,6.70
2023-03-24T16:01:31.702Z,12.30
2023-03-24T16:04:02.134Z,16.70
2023-03-24T16:06:35.455Z,10.20
2023-03-24T16:09:13.770Z,23.40
2023-03-24T16:11:42.729Z,12.90
2023-03-24T16:14:32.561Z,16.20
2023-03-24T16:17:03.755Z,20.00
2023-03-24T16:19:31.676Z,13.20
2023-03-24T16:21:59.964Z,15.80
2023-03-24T16:24:27.860Z,13.90
2023-03-24T16:26:55.817Z,6.10
2023-03-24T16:29:24.132Z,6.80
2023-03-24T16:31:55.396Z,4.50
2023-03-24T16:34:23.944Z,5.10
2023-03-24T16:36:54.448Z,5.10
2023-03-24T16:39:25.679Z,3.70
2023-03-24T16:41:54.368Z,3.00
2023-03-24T16:44:23.258Z,3.50
2023-03-24T16:46:53.885Z,5.30
2023-03-24T16:49:23.993Z,2.50
2023-03-24T16:51:56.186Z,2.30
2023-03-24T16:54:24.034Z,2.10
2023-03-24T16:56:52.020Z,2.70
2023-03-24T16:59:20.832Z,2.70
2023-03-24T17:01:52.302Z,4.50
2023-03-24T17:04:24.758Z,3.10
2023-03-24T17:06:54.440Z,3.70
2023-03-24T17:09:22.945Z,5.20
2023-03-24T17:11:56.361Z,5.10
2023-03-24T17:14:24.682Z,5.60
2023-03-24T17:16:53.770Z,7.70
2023-03-24T17:19:23.641Z,10.60
2023-03-24T17:22:05.911Z,7.10
2023-03-24T17:24:36.056Z,6.70
2023-03-24T17:27:10.376Z,8.90
2023-03-24T17:29:38.284Z,11.00
2023-03-24T17:32:06.145Z,9.00
2023-03-24T17:34:34.097Z,7.10
2023-03-24T17:37:01.994Z,6.70
2023-03-24T17:39:30.242Z,83.80
2023-03-24T17:42:01.320Z,27.60
2023-03-24T17:44:29.231Z,28.00
2023-03-24T17:46:57.169Z,10.70
2023-03-24T17:49:25.058Z,12.40
2023-03-24T17:51:52.903Z,8.70
2023-03-24T17:54:21.316Z,16.70
2023-03-24T17:56:49.299Z,55.10
2023-03-24T17:59:17.740Z,54.90
2023-03-24T18:01:47.270Z,30.90
2023-03-24T18:04:15.425Z,309.20
2023-03-24T18:06:44.256Z,378.90
2023-03-24T18:09:12.051Z,129.10
2023-03-24T18:11:39.841Z,76.70
2023-03-24T18:14:09.295Z,39.40
2023-03-24T18:16:39.374Z,167.10
2023-03-24T18:19:07.661Z,96.40
2023-03-24T18:21:35.876Z,38.70
2023-03-24T18:24:04.633Z,47.60
2023-03-24T18:26:33.648Z,206.30
2023-03-24T18:29:01.552Z,390.90
2023-03-24T18:31:32.501Z,46.80
2023-03-24T18:34:00.643Z,34.80
2023-03-24T18:36:29.211Z,36.20
2023-03-24T18:39:07.007Z,59.40
2023-03-24T18:41:37.452Z,194.00
2023-03-24T18:44:08.697Z,274.00
2023-03-24T18:46:37.034Z,205.60
2023-03-24T18:49:06.286Z,163.60
2023-03-24T18:51:35.598Z,48.80
2023-03-24T18:54:03.626Z,68.90
2023-03-24T18:56:31.570Z,94.70
2023-03-24T18:58:59.584Z,20.80
2023-03-24T19:01:27.387Z,15.40
2023-03-24T19:03:55.527Z,10.20
2023-03-24T19:06:31.214Z,9.90
2023-03-24T19:11:28.232Z,7.80
2023-03-24T19:13:57.045Z,8.00
2023-03-24T19:16:25.063Z,8.50
2023-03-24T19:18:53.132Z,9.50
2023-03-24T19:21:23.245Z,7.50
2023-03-24T19:23:52.560Z,8.60
2023-03-24T19:26:21.209Z,16.80
2023-03-24T19:28:49.331Z,10.40
2023-03-24T19:31:19.975Z,9.00
2023-03-24T19:33:48.060Z,9.10
2023-03-24T19:36:15.980Z,8.10
2023-03-24T19:38:44.398Z,8.20
2023-03-24T19:41:14.370Z,7.30
2023-03-24T19:43:43.452Z,7.00
2023-03-24T19:46:11.317Z,7.40
2023-03-24T19:48:39.245Z,10.80
2023-03-24T19:51:07.175Z,9.90
2023-03-24T19:53:35.142Z,13.60
2023-03-24T19:56:04.222Z,10.50
2023-03-24T19:58:32.233Z,13.30
2023-03-24T20:01:00.142Z,10.60
2023-03-24T20:03:29.099Z,9.80
2023-03-24T20:06:03.461Z,14.20
2023-03-24T20:08:31.347Z,15.40
2023-03-24T20:10:59.110Z,19.40
2023-03-24T20:13:27.775Z,16.40
2023-03-24T20:15:55.909Z,13.30
2023-03-24T20:18:24.066Z,10.50
2023-03-24T20:20:55.396Z,9.50
2023-03-24T20:23:23.163Z,10.80
2023-03-24T20:25:52.189Z,11.70
2023-03-24T20:28:20.559Z,11.70
2023-03-24T20:30:49.079Z,12.80
2023-03-24T20:33:17.055Z,10.00
2023-03-24T20:35:44.932Z,9.70
2023-03-24T20:38:13.573Z,18.00
2023-03-24T20:40:41.402Z,9.30
2023-03-24T20:43:09.542Z,9.20
2023-03-24T20:45:37.465Z,7.70
2023-03-24T20:48:05.704Z,14.60
2023-03-24T20:50:33.589Z,16.60
2023-03-24T20:53:01.438Z,13.50
2023-03-24T20:55:29.281Z,10.00
2023-03-24T20:57:57.111Z,10.20
2023-03-24T21:00:25.056Z,12.60
2023-03-24T21:02:52.987Z,11.80
2023-03-24T21:05:21.563Z,8.00
2023-03-24T21:07:49.369Z,8.50
2023-03-24T21:10:17.364Z,7.50
2023-03-24T21:12:53.445Z,12.40
2023-03-24T21:15:25.209Z,8.60
2023-03-24T21:17:54.572Z,8.60
2023-03-24T21:20:26.730Z,11.80
2023-03-24T21:22:55.615Z,8.10
2023-03-24T21:25:28.505Z,7.90
2023-03-24T21:27:57.872Z,8.10
2023-03-24T21:30:27.580Z,8.20
2023-03-24T21:32:57.339Z,7.80
2023-03-24T21:35:25.626Z,7.20
2023-03-24T21:37:54.035Z,7.20
2023-03-24T21:40:24.834Z,9.00
2023-03-24T21:42:54.021Z,8.50
2023-03-24T21:45:23.584Z,7.10
2023-03-24T21:47:54.904Z,7.10
2023-03-24T21:50:23.579Z,7.10
2023-03-24T21:52:53.668Z,7.10
2023-03-24T21:55:23.178Z,7.70
2023-03-24T21:57:51.983Z,7.60
2023-03-24T22:00:26.285Z,7.30
2023-03-24T22:02:54.380Z,8.30
2023-03-24T22:05:24.995Z,9.00
2023-03-24T22:07:54.095Z,7.60
2023-03-24T22:10:29.813Z,8.80
2023-03-24T22:12:57.859Z,10.90
2023-03-24T22:15:25.930Z,12.90
2023-03-24T22:17:53.869Z,15.20
2023-03-24T22:20:22.800Z,18.50
2023-03-24T22:22:50.685Z,12.80
2023-03-24T22:25:18.807Z,12.10
2023-03-24T22:27:50.078Z,9.30
2023-03-24T22:30:20.214Z,8.20
2023-03-24T22:32:48.400Z,8.60
2023-03-24T22:35:16.764Z,8.70
2023-03-24T22:37:44.941Z,9.10
2023-03-24T22:40:12.811Z,8.30
2023-03-24T22:42:41.061Z,9.10
2023-03-24T22:45:09.374Z,8.70
2023-03-24T22:47:37.214Z,8.80
2023-03-24T22:50:06.010Z,8.90
2023-03-24T22:52:34.052Z,9.20
2023-03-24T22:55:02.021Z,9.20
2023-03-24T22:57:29.983Z,9.70
2023-03-24T23:00:01.846Z,9.80
2023-03-24T23:02:30.873Z,8.70
2023-03-24T23:04:59.329Z,9.30
2023-03-24T23:07:28.313Z,8.20
2023-03-24T23:09:59.568Z,8.30
2023-03-24T23:12:27.757Z,7.90
2023-03-24T23:14:56.069Z,8.30
2023-03-24T23:17:24.403Z,8.60
2023-03-24T23:19:54.020Z,8.70
2023-03-24T23:22:23.129Z,8.70
2023-03-24T23:25:02.284Z,10.20
2023-03-24T23:27:38.013Z,11.60
2023-03-24T23:30:08.296Z,11.40
2023-03-24T23:32:37.004Z,10.00
2023-03-24T23:35:08.157Z,8.50
2023-03-24T23:37:37.150Z,9.00
2023-03-24T23:40:13.079Z,8.50
2023-03-24T23:45:18.351Z,8.40
2023-03-24T23:47:49.590Z,9.20
2023-03-24T23:50:19.875Z,9.00
2023-03-24T23:52:48.097Z,9.50
2023-03-24T23:55:18.200Z,10.00
2023-03-24T23:57:49.324Z,9.40
